Shrewsbury, MA

4:17 AM EDT on August 04, 2015 (GMT -0400)
Dean Park | | Change Station
CLOSE
Current Station
Personal Weather Station
Location: Shrewsbury, MA
Elevation: 459 ft
Nearby Weather Stations

Elev 459 ft 42.30 °N, 71.69 °W | Updated 2 seconds ago

Partly Cloudy
Partly Cloudy
72.0 °F
Feels Like 72.0 °F
N
0.0
Wind Variable Wind from NNE
Gusts 0.0 mph

Today
High -- | Low -- °F
--% Chance of Precip.
Yesterday
High -- | Low -- °F
Precip. -- in
5:42 AM 8:02 PM
Waning Gibbous, 80% visible
Pressure 29.86 in
Visibility 4.0 miles
Clouds Mostly Cloudy 500 ft
Mostly Cloudy 11000 ft
Dew Point 70 °F
Humidity 95%
Rainfall 0.00 in
Snow Depth Not available.
UV 0.0 out of 12
Pollen 5.60 out of 12
Air Quality Not available.
Flu Activity Not available.
SPECI KORH 040812Z AUTO 22007KT 4SM BR BKN005 BKN110 21/20 A2986 RMK AO2 LTG DSNT SW T02060200

More Conditions Fewer Conditions

Pressure 29.86 in
Visibility 4.0 miles
Clouds Mostly Cloudy 500 ft
Mostly Cloudy 11000 ft
Dew Point 70 °F
Humidity 95%
Rainfall 0.00 in
Snow Depth Not available.
UV 0.0 out of 12
Pollen 5.60 out of 12
Air Quality Not available.
Flu Activity Not available.
SPECI KORH 040812Z AUTO 22007KT 4SM BR BKN005 BKN110 21/20 A2986 RMK AO2 LTG DSNT SW T02060200

More Conditions Fewer Conditions

10-Day Weather Forecast

×

Almanac

Astronomy

Aug. 04, 2015 Rise Set
Actual Time
Civil Twilight
Nautical Twilight
Astronomical Twilight
Moon
Length of Visible Light
Length of Day
Tomorrow will be .
, % of the Moon is Illuminated

Today's Extremes

State Highs State Lows

Community

WunderPhotos

Upload Photos

1,843,877 photos uploaded!

WunderBlogs® & News

Nearby

Air Quality

  Air Quality AQ Index Pollutant
Not available.

Snow Depth

Station Depth Elevation

Earthquake Activity

City Distance Mag. Time & Date
Minimum magnitude displayed is 2.5.

Coastal Water Temperatures

Place Temperature

Stations

Nearby Weather Stations

Station Location Temp. Windchill Dew Point Humidity Wind Precip. Elev Updated Type